sensor_id;sensor_type;location;lat;lon;timestamp;P1;durP1;ratioP1;P2;durP2;ratioP2
19032;SDS011;9649;51.042;13.804;2024-01-30T00:01:11;26.17;;;12.47;;
19032;SDS011;9649;51.042;13.804;2024-01-30T00:06:14;29.43;;;13.37;;
19032;SDS011;9649;51.042;13.804;2024-01-30T00:11:21;25.33;;;12.77;;
19032;SDS011;9649;51.042;13.804;2024-01-30T00:16:27;25.33;;;12.23;;
19032;SDS011;9649;51.042;13.804;2024-01-30T00:21:30;27.63;;;13.47;;
19032;SDS011;9649;51.042;13.804;2024-01-30T00:26:34;29.03;;;12.97;;
19032;SDS011;9649;51.042;13.804;2024-01-30T00:31:37;26.97;;;12.67;;
19032;SDS011;9649;51.042;13.804;2024-01-30T00:36:42;27.60;;;12.67;;
19032;SDS011;9649;51.042;13.804;2024-01-30T00:41:46;24.77;;;11.97;;
19032;SDS011;9649;51.042;13.804;2024-01-30T00:46:49;25.23;;;12.77;;
19032;SDS011;9649;51.042;13.804;2024-01-30T00:51:52;28.37;;;12.17;;
19032;SDS011;9649;51.042;13.804;2024-01-30T00:56:56;27.23;;;12.37;;
19032;SDS011;9649;51.042;13.804;2024-01-30T01:01:59;26.47;;;11.97;;
19032;SDS011;9649;51.042;13.804;2024-01-30T01:07:02;26.63;;;12.37;;
19032;SDS011;9649;51.042;13.804;2024-01-30T01:12:06;27.73;;;12.20;;
19032;SDS011;9649;51.042;13.804;2024-01-30T01:17:09;23.87;;;12.43;;
19032;SDS011;9649;51.042;13.804;2024-01-30T01:22:12;23.80;;;11.50;;
19032;SDS011;9649;51.042;13.804;2024-01-30T01:27:16;25.27;;;11.80;;
19032;SDS011;9649;51.042;13.804;2024-01-30T01:32:19;24.30;;;11.77;;
19032;SDS011;9649;51.042;13.804;2024-01-30T01:37:22;24.70;;;10.20;;
19032;SDS011;9649;51.042;13.804;2024-01-30T01:42:29;21.70;;;10.50;;
19032;SDS011;9649;51.042;13.804;2024-01-30T01:47:32;25.10;;;11.27;;
19032;SDS011;9649;51.042;13.804;2024-01-30T01:52:35;23.80;;;11.10;;
19032;SDS011;9649;51.042;13.804;2024-01-30T01:57:40;26.77;;;12.27;;
19032;SDS011;9649;51.042;13.804;2024-01-30T02:02:44;26.83;;;11.07;;
19032;SDS011;9649;51.042;13.804;2024-01-30T02:07:48;25.27;;;11.80;;
19032;SDS011;9649;51.042;13.804;2024-01-30T02:12:53;21.83;;;11.10;;
19032;SDS011;9649;51.042;13.804;2024-01-30T02:17:56;25.63;;;11.67;;
19032;SDS011;9649;51.042;13.804;2024-01-30T02:23:00;26.33;;;11.83;;
19032;SDS011;9649;51.042;13.804;2024-01-30T02:28:04;26.43;;;11.77;;
19032;SDS011;9649;51.042;13.804;2024-01-30T02:33:07;26.70;;;11.33;;
19032;SDS011;9649;51.042;13.804;2024-01-30T02:38:11;24.73;;;11.43;;
19032;SDS011;9649;51.042;13.804;2024-01-30T02:43:14;24.97;;;11.17;;
19032;SDS011;9649;51.042;13.804;2024-01-30T02:48:17;25.73;;;12.33;;
19032;SDS011;9649;51.042;13.804;2024-01-30T02:53:21;24.63;;;11.60;;
19032;SDS011;9649;51.042;13.804;2024-01-30T02:58:24;30.53;;;12.73;;
19032;SDS011;9649;51.042;13.804;2024-01-30T03:03:27;29.50;;;11.93;;
19032;SDS011;9649;51.042;13.804;2024-01-30T03:08:31;23.97;;;11.30;;
19032;SDS011;9649;51.042;13.804;2024-01-30T03:13:35;28.03;;;12.67;;
19032;SDS011;9649;51.042;13.804;2024-01-30T03:18:38;27.90;;;12.77;;
19032;SDS011;9649;51.042;13.804;2024-01-30T03:23:42;24.43;;;11.43;;
19032;SDS011;9649;51.042;13.804;2024-01-30T03:28:45;29.33;;;12.30;;
19032;SDS011;9649;51.042;13.804;2024-01-30T03:33:48;27.37;;;12.53;;
19032;SDS011;9649;51.042;13.804;2024-01-30T03:38:52;32.33;;;13.03;;
19032;SDS011;9649;51.042;13.804;2024-01-30T03:43:55;27.97;;;12.37;;
19032;SDS011;9649;51.042;13.804;2024-01-30T03:48:57;30.50;;;13.07;;
19032;SDS011;9649;51.042;13.804;2024-01-30T03:54:02;24.87;;;11.03;;
19032;SDS011;9649;51.042;13.804;2024-01-30T03:59:05;24.27;;;11.50;;
19032;SDS011;9649;51.042;13.804;2024-01-30T04:04:08;25.67;;;12.37;;
19032;SDS011;9649;51.042;13.804;2024-01-30T04:09:17;23.03;;;11.30;;
19032;SDS011;9649;51.042;13.804;2024-01-30T04:14:34;23.40;;;11.77;;
19032;SDS011;9649;51.042;13.804;2024-01-30T04:20:23;24.43;;;11.07;;
19032;SDS011;9649;51.042;13.804;2024-01-30T04:25:50;28.67;;;12.27;;
19032;SDS011;9649;51.042;13.804;2024-01-30T04:31:10;25.63;;;12.13;;
19032;SDS011;9649;51.042;13.804;2024-01-30T04:36:52;23.23;;;11.93;;
19032;SDS011;9649;51.042;13.804;2024-01-30T04:48:09;24.90;;;11.47;;
19032;SDS011;9649;51.042;13.804;2024-01-30T04:53:39;27.20;;;12.13;;
19032;SDS011;9649;51.042;13.804;2024-01-30T04:59:09;24.60;;;11.47;;
19032;SDS011;9649;51.042;13.804;2024-01-30T05:04:20;25.90;;;11.57;;
19032;SDS011;9649;51.042;13.804;2024-01-30T05:09:36;25.70;;;12.63;;
19032;SDS011;9649;51.042;13.804;2024-01-30T05:15:15;27.73;;;12.43;;
19032;SDS011;9649;51.042;13.804;2024-01-30T05:26:30;26.97;;;11.37;;
19032;SDS011;9649;51.042;13.804;2024-01-30T05:32:05;27.03;;;11.83;;
19032;SDS011;9649;51.042;13.804;2024-01-30T05:37:50;25.60;;;11.17;;
19032;SDS011;9649;51.042;13.804;2024-01-30T05:43:14;23.70;;;11.50;;
19032;SDS011;9649;51.042;13.804;2024-01-30T05:48:42;29.07;;;11.97;;
19032;SDS011;9649;51.042;13.804;2024-01-30T05:55:12;27.20;;;11.70;;
19032;SDS011;9649;51.042;13.804;2024-01-30T06:00:22;30.60;;;12.10;;
19032;SDS011;9649;51.042;13.804;2024-01-30T06:11:56;29.17;;;12.03;;
19032;SDS011;9649;51.042;13.804;2024-01-30T06:17:25;26.47;;;12.03;;
19032;SDS011;9649;51.042;13.804;2024-01-30T06:23:14;25.20;;;11.63;;
19032;SDS011;9649;51.042;13.804;2024-01-30T06:28:42;28.97;;;12.03;;
19032;SDS011;9649;51.042;13.804;2024-01-30T06:34:06;26.17;;;11.80;;
19032;SDS011;9649;51.042;13.804;2024-01-30T06:39:15;29.87;;;12.30;;
19032;SDS011;9649;51.042;13.804;2024-01-30T06:44:18;28.13;;;12.60;;
19032;SDS011;9649;51.042;13.804;2024-01-30T06:49:21;26.17;;;12.03;;
19032;SDS011;9649;51.042;13.804;2024-01-30T06:54:25;28.33;;;13.27;;
19032;SDS011;9649;51.042;13.804;2024-01-30T06:59:28;26.20;;;13.17;;
19032;SDS011;9649;51.042;13.804;2024-01-30T07:04:30;23.63;;;11.83;;
19032;SDS011;9649;51.042;13.804;2024-01-30T07:09:35;26.60;;;11.27;;
19032;SDS011;9649;51.042;13.804;2024-01-30T07:14:37;23.77;;;11.97;;
19032;SDS011;9649;51.042;13.804;2024-01-30T07:19:40;23.50;;;11.37;;
19032;SDS011;9649;51.042;13.804;2024-01-30T07:24:44;25.03;;;12.50;;
19032;SDS011;9649;51.042;13.804;2024-01-30T07:29:49;21.40;;;10.67;;
19032;SDS011;9649;51.042;13.804;2024-01-30T07:34:52;24.27;;;10.70;;
19032;SDS011;9649;51.042;13.804;2024-01-30T07:40:10;23.03;;;10.70;;
19032;SDS011;9649;51.042;13.804;2024-01-30T07:45:13;22.93;;;10.53;;
19032;SDS011;9649;51.042;13.804;2024-01-30T07:50:16;20.73;;;10.37;;
19032;SDS011;9649;51.042;13.804;2024-01-30T07:55:21;23.07;;;10.00;;
19032;SDS011;9649;51.042;13.804;2024-01-30T08:00:26;21.00;;;9.80;;
19032;SDS011;9649;51.042;13.804;2024-01-30T08:05:30;20.57;;;10.47;;
19032;SDS011;9649;51.042;13.804;2024-01-30T08:10:34;19.47;;;9.87;;
19032;SDS011;9649;51.042;13.804;2024-01-30T08:15:37;21.83;;;10.33;;
19032;SDS011;9649;51.042;13.804;2024-01-30T08:20:40;19.43;;;9.60;;
19032;SDS011;9649;51.042;13.804;2024-01-30T08:25:45;20.20;;;9.67;;
19032;SDS011;9649;51.042;13.804;2024-01-30T08:30:47;21.53;;;10.37;;
19032;SDS011;9649;51.042;13.804;2024-01-30T08:35:50;19.80;;;9.80;;
19032;SDS011;9649;51.042;13.804;2024-01-30T08:40:55;18.13;;;10.40;;
19032;SDS011;9649;51.042;13.804;2024-01-30T08:45:58;18.27;;;9.87;;
19032;SDS011;9649;51.042;13.804;2024-01-30T08:51:01;19.17;;;9.60;;
19032;SDS011;9649;51.042;13.804;2024-01-30T08:56:06;17.07;;;9.17;;
19032;SDS011;9649;51.042;13.804;2024-01-30T09:01:09;17.80;;;10.00;;
19032;SDS011;9649;51.042;13.804;2024-01-30T09:06:12;20.77;;;9.93;;
19032;SDS011;9649;51.042;13.804;2024-01-30T09:11:16;16.13;;;9.53;;
19032;SDS011;9649;51.042;13.804;2024-01-30T09:16:19;23.47;;;9.73;;
19032;SDS011;9649;51.042;13.804;2024-01-30T09:21:22;18.13;;;10.17;;
19032;SDS011;9649;51.042;13.804;2024-01-30T09:26:37;19.90;;;10.90;;
19032;SDS011;9649;51.042;13.804;2024-01-30T09:32:17;19.13;;;10.67;;
19032;SDS011;9649;51.042;13.804;2024-01-30T09:48:50;18.63;;;9.83;;
19032;SDS011;9649;51.042;13.804;2024-01-30T09:54:37;21.00;;;11.53;;
19032;SDS011;9649;51.042;13.804;2024-01-30T10:00:14;21.17;;;11.07;;
19032;SDS011;9649;51.042;13.804;2024-01-30T10:05:51;20.57;;;9.80;;
19032;SDS011;9649;51.042;13.804;2024-01-30T10:11:01;22.83;;;10.30;;
19032;SDS011;9649;51.042;13.804;2024-01-30T10:16:15;19.53;;;9.97;;
19032;SDS011;9649;51.042;13.804;2024-01-30T10:21:24;19.33;;;10.33;;
19032;SDS011;9649;51.042;13.804;2024-01-30T10:26:27;19.50;;;10.18;;
19032;SDS011;9649;51.042;13.804;2024-01-30T10:31:42;18.07;;;10.13;;
19032;SDS011;9649;51.042;13.804;2024-01-30T10:36:54;19.20;;;10.40;;
19032;SDS011;9649;51.042;13.804;2024-01-30T10:42:10;17.77;;;9.37;;
19032;SDS011;9649;51.042;13.804;2024-01-30T10:47:17;18.33;;;9.80;;
19032;SDS011;9649;51.042;13.804;2024-01-30T10:52:24;18.33;;;9.40;;
19032;SDS011;9649;51.042;13.804;2024-01-30T10:57:46;16.63;;;9.80;;
19032;SDS011;9649;51.042;13.804;2024-01-30T11:03:01;22.30;;;10.23;;
19032;SDS011;9649;51.042;13.804;2024-01-30T11:08:26;19.00;;;9.87;;
19032;SDS011;9649;51.042;13.804;2024-01-30T11:13:30;19.67;;;10.33;;
19032;SDS011;9649;51.042;13.804;2024-01-30T11:18:37;19.73;;;10.23;;
19032;SDS011;9649;51.042;13.804;2024-01-30T11:23:43;20.97;;;10.93;;
19032;SDS011;9649;51.042;13.804;2024-01-30T11:28:52;21.40;;;10.67;;
19032;SDS011;9649;51.042;13.804;2024-01-30T11:33:59;19.10;;;10.00;;
19032;SDS011;9649;51.042;13.804;2024-01-30T11:39:06;20.10;;;11.43;;
19032;SDS011;9649;51.042;13.804;2024-01-30T11:44:16;37.93;;;12.30;;
19032;SDS011;9649;51.042;13.804;2024-01-30T11:49:24;23.37;;;11.60;;
19032;SDS011;9649;51.042;13.804;2024-01-30T11:54:45;23.10;;;11.57;;
19032;SDS011;9649;51.042;13.804;2024-01-30T12:00:23;25.33;;;11.80;;
19032;SDS011;9649;51.042;13.804;2024-01-30T12:05:36;22.73;;;11.20;;
19032;SDS011;9649;51.042;13.804;2024-01-30T12:10:47;23.47;;;11.33;;
19032;SDS011;9649;51.042;13.804;2024-01-30T12:16:14;20.83;;;10.93;;
19032;SDS011;9649;51.042;13.804;2024-01-30T12:21:44;24.33;;;11.33;;
19032;SDS011;9649;51.042;13.804;2024-01-30T12:26:49;24.73;;;11.77;;
19032;SDS011;9649;51.042;13.804;2024-01-30T12:31:59;27.33;;;12.97;;
19032;SDS011;9649;51.042;13.804;2024-01-30T12:37:08;22.57;;;11.10;;
19032;SDS011;9649;51.042;13.804;2024-01-30T12:42:15;26.67;;;11.37;;
19032;SDS011;9649;51.042;13.804;2024-01-30T12:47:30;21.27;;;11.43;;
19032;SDS011;9649;51.042;13.804;2024-01-30T12:52:49;22.20;;;12.03;;
19032;SDS011;9649;51.042;13.804;2024-01-30T12:57:57;29.00;;;12.60;;
19032;SDS011;9649;51.042;13.804;2024-01-30T13:03:05;26.53;;;12.43;;
19032;SDS011;9649;51.042;13.804;2024-01-30T13:08:38;22.57;;;12.20;;
19032;SDS011;9649;51.042;13.804;2024-01-30T13:13:47;23.07;;;11.43;;
19032;SDS011;9649;51.042;13.804;2024-01-30T13:19:09;19.60;;;11.13;;
19032;SDS011;9649;51.042;13.804;2024-01-30T13:24:30;23.30;;;10.83;;
19032;SDS011;9649;51.042;13.804;2024-01-30T13:30:09;22.07;;;12.27;;
19032;SDS011;9649;51.042;13.804;2024-01-30T13:36:03;26.83;;;11.67;;
19032;SDS011;9649;51.042;13.804;2024-01-30T13:41:30;21.97;;;11.53;;
19032;SDS011;9649;51.042;13.804;2024-01-30T13:46:59;22.57;;;11.77;;
19032;SDS011;9649;51.042;13.804;2024-01-30T13:58:39;23.63;;;12.07;;
19032;SDS011;9649;51.042;13.804;2024-01-30T14:03:56;26.53;;;12.20;;
19032;SDS011;9649;51.042;13.804;2024-01-30T14:09:05;28.27;;;12.53;;
19032;SDS011;9649;51.042;13.804;2024-01-30T14:14:38;24.30;;;11.60;;
19032;SDS011;9649;51.042;13.804;2024-01-30T14:19:50;23.67;;;12.50;;
19032;SDS011;9649;51.042;13.804;2024-01-30T14:24:53;29.57;;;13.40;;
19032;SDS011;9649;51.042;13.804;2024-01-30T14:30:12;30.43;;;13.23;;
19032;SDS011;9649;51.042;13.804;2024-01-30T14:35:14;22.60;;;12.50;;
19032;SDS011;9649;51.042;13.804;2024-01-30T14:40:21;25.23;;;12.47;;
19032;SDS011;9649;51.042;13.804;2024-01-30T14:45:32;28.33;;;12.43;;
19032;SDS011;9649;51.042;13.804;2024-01-30T14:50:40;26.37;;;13.10;;
19032;SDS011;9649;51.042;13.804;2024-01-30T14:55:50;30.77;;;13.47;;
19032;SDS011;9649;51.042;13.804;2024-01-30T15:01:02;27.50;;;13.37;;
19032;SDS011;9649;51.042;13.804;2024-01-30T15:06:07;30.30;;;13.23;;
19032;SDS011;9649;51.042;13.804;2024-01-30T15:11:17;33.10;;;14.63;;
19032;SDS011;9649;51.042;13.804;2024-01-30T15:16:29;28.67;;;13.70;;
19032;SDS011;9649;51.042;13.804;2024-01-30T15:21:33;32.20;;;13.83;;
19032;SDS011;9649;51.042;13.804;2024-01-30T15:26:38;30.47;;;13.53;;
19032;SDS011;9649;51.042;13.804;2024-01-30T15:31:42;29.10;;;12.87;;
19032;SDS011;9649;51.042;13.804;2024-01-30T15:36:45;35.30;;;14.43;;
19032;SDS011;9649;51.042;13.804;2024-01-30T15:41:48;31.57;;;14.27;;
19032;SDS011;9649;51.042;13.804;2024-01-30T15:46:52;29.60;;;14.60;;
19032;SDS011;9649;51.042;13.804;2024-01-30T15:51:55;29.30;;;13.70;;
19032;SDS011;9649;51.042;13.804;2024-01-30T15:56:57;36.23;;;15.20;;
19032;SDS011;9649;51.042;13.804;2024-01-30T16:02:02;27.13;;;13.80;;
19032;SDS011;9649;51.042;13.804;2024-01-30T16:07:09;32.70;;;14.90;;
19032;SDS011;9649;51.042;13.804;2024-01-30T16:12:18;34.33;;;14.57;;
19032;SDS011;9649;51.042;13.804;2024-01-30T16:17:22;29.20;;;13.43;;
19032;SDS011;9649;51.042;13.804;2024-01-30T16:22:30;29.63;;;15.07;;
19032;SDS011;9649;51.042;13.804;2024-01-30T16:27:43;31.43;;;13.67;;
19032;SDS011;9649;51.042;13.804;2024-01-30T16:32:48;32.60;;;14.93;;
19032;SDS011;9649;51.042;13.804;2024-01-30T16:37:52;30.47;;;15.13;;
19032;SDS011;9649;51.042;13.804;2024-01-30T16:42:55;33.03;;;14.70;;
19032;SDS011;9649;51.042;13.804;2024-01-30T16:47:59;31.60;;;13.90;;
19032;SDS011;9649;51.042;13.804;2024-01-30T16:53:02;35.63;;;16.63;;
19032;SDS011;9649;51.042;13.804;2024-01-30T16:58:05;32.53;;;14.63;;
19032;SDS011;9649;51.042;13.804;2024-01-30T17:03:11;33.80;;;15.57;;
19032;SDS011;9649;51.042;13.804;2024-01-30T17:08:14;32.00;;;14.83;;
19032;SDS011;9649;51.042;13.804;2024-01-30T17:13:17;35.33;;;15.27;;
19032;SDS011;9649;51.042;13.804;2024-01-30T17:18:21;35.37;;;14.67;;
19032;SDS011;9649;51.042;13.804;2024-01-30T17:23:24;37.00;;;15.83;;
19032;SDS011;9649;51.042;13.804;2024-01-30T17:28:28;40.77;;;16.43;;
19032;SDS011;9649;51.042;13.804;2024-01-30T17:33:32;36.67;;;16.50;;
19032;SDS011;9649;51.042;13.804;2024-01-30T17:38:36;33.77;;;15.57;;
19032;SDS011;9649;51.042;13.804;2024-01-30T17:43:39;36.50;;;16.47;;
19032;SDS011;9649;51.042;13.804;2024-01-30T17:48:43;39.43;;;17.00;;
19032;SDS011;9649;51.042;13.804;2024-01-30T17:53:47;36.90;;;15.43;;
19032;SDS011;9649;51.042;13.804;2024-01-30T17:58:51;35.00;;;15.77;;
19032;SDS011;9649;51.042;13.804;2024-01-30T18:03:58;36.37;;;15.23;;
19032;SDS011;9649;51.042;13.804;2024-01-30T18:09:01;35.87;;;15.73;;
19032;SDS011;9649;51.042;13.804;2024-01-30T18:14:04;40.03;;;17.30;;
19032;SDS011;9649;51.042;13.804;2024-01-30T18:19:08;33.87;;;16.00;;
19032;SDS011;9649;51.042;13.804;2024-01-30T18:24:11;35.50;;;16.33;;
19032;SDS011;9649;51.042;13.804;2024-01-30T18:29:14;39.33;;;17.50;;
19032;SDS011;9649;51.042;13.804;2024-01-30T18:34:18;40.80;;;17.80;;
19032;SDS011;9649;51.042;13.804;2024-01-30T18:39:21;36.17;;;16.40;;
19032;SDS011;9649;51.042;13.804;2024-01-30T18:44:24;35.80;;;16.27;;
19032;SDS011;9649;51.042;13.804;2024-01-30T18:49:29;38.63;;;16.63;;
19032;SDS011;9649;51.042;13.804;2024-01-30T18:54:32;40.63;;;17.60;;
19032;SDS011;9649;51.042;13.804;2024-01-30T18:59:34;38.53;;;16.70;;
19032;SDS011;9649;51.042;13.804;2024-01-30T19:04:39;39.67;;;17.23;;
19032;SDS011;9649;51.042;13.804;2024-01-30T19:09:42;40.67;;;17.40;;
19032;SDS011;9649;51.042;13.804;2024-01-30T19:14:45;41.80;;;18.90;;
19032;SDS011;9649;51.042;13.804;2024-01-30T19:19:50;47.27;;;18.90;;
19032;SDS011;9649;51.042;13.804;2024-01-30T19:24:53;40.93;;;17.80;;
19032;SDS011;9649;51.042;13.804;2024-01-30T19:29:56;42.00;;;16.93;;
19032;SDS011;9649;51.042;13.804;2024-01-30T19:35:00;42.60;;;17.57;;
19032;SDS011;9649;51.042;13.804;2024-01-30T19:40:03;41.47;;;17.23;;
19032;SDS011;9649;51.042;13.804;2024-01-30T19:45:08;37.67;;;16.40;;
19032;SDS011;9649;51.042;13.804;2024-01-30T19:50:14;41.97;;;17.40;;
19032;SDS011;9649;51.042;13.804;2024-01-30T19:55:17;42.77;;;18.03;;
19032;SDS011;9649;51.042;13.804;2024-01-30T20:00:20;40.77;;;17.60;;
19032;SDS011;9649;51.042;13.804;2024-01-30T20:05:27;39.43;;;16.80;;
19032;SDS011;9649;51.042;13.804;2024-01-30T20:10:30;39.73;;;17.10;;
19032;SDS011;9649;51.042;13.804;2024-01-30T20:15:33;37.60;;;17.20;;
19032;SDS011;9649;51.042;13.804;2024-01-30T20:20:37;43.40;;;17.70;;
19032;SDS011;9649;51.042;13.804;2024-01-30T20:25:42;41.57;;;17.47;;
19032;SDS011;9649;51.042;13.804;2024-01-30T20:30:44;41.77;;;18.10;;
19032;SDS011;9649;51.042;13.804;2024-01-30T20:35:50;40.83;;;18.07;;
19032;SDS011;9649;51.042;13.804;2024-01-30T20:40:52;47.30;;;18.53;;
19032;SDS011;9649;51.042;13.804;2024-01-30T20:45:55;45.83;;;20.13;;
19032;SDS011;9649;51.042;13.804;2024-01-30T20:51:00;41.67;;;18.67;;
19032;SDS011;9649;51.042;13.804;2024-01-30T20:56:03;46.40;;;19.97;;
19032;SDS011;9649;51.042;13.804;2024-01-30T21:01:06;51.43;;;19.60;;
19032;SDS011;9649;51.042;13.804;2024-01-30T21:06:10;46.63;;;19.43;;
19032;SDS011;9649;51.042;13.804;2024-01-30T21:11:14;52.30;;;19.20;;
19032;SDS011;9649;51.042;13.804;2024-01-30T21:16:19;52.13;;;20.63;;
19032;SDS011;9649;51.042;13.804;2024-01-30T21:21:23;48.93;;;18.90;;
19032;SDS011;9649;51.042;13.804;2024-01-30T21:26:26;50.07;;;20.20;;
19032;SDS011;9649;51.042;13.804;2024-01-30T21:31:29;49.13;;;19.90;;
19032;SDS011;9649;51.042;13.804;2024-01-30T21:36:33;47.60;;;21.00;;
19032;SDS011;9649;51.042;13.804;2024-01-30T21:41:36;49.63;;;20.57;;
19032;SDS011;9649;51.042;13.804;2024-01-30T21:46:38;46.83;;;20.10;;
19032;SDS011;9649;51.042;13.804;2024-01-30T21:51:43;52.57;;;21.37;;
19032;SDS011;9649;51.042;13.804;2024-01-30T21:56:46;48.33;;;20.13;;
19032;SDS011;9649;51.042;13.804;2024-01-30T22:01:49;47.47;;;19.43;;
19032;SDS011;9649;51.042;13.804;2024-01-30T22:07:05;49.27;;;21.50;;
19032;SDS011;9649;51.042;13.804;2024-01-30T22:13:09;50.97;;;20.93;;
19032;SDS011;9649;51.042;13.804;2024-01-30T22:24:33;54.67;;;20.83;;
19032;SDS011;9649;51.042;13.804;2024-01-30T22:29:54;54.00;;;21.43;;
19032;SDS011;9649;51.042;13.804;2024-01-30T22:35:37;56.73;;;22.17;;
19032;SDS011;9649;51.042;13.804;2024-01-30T22:41:20;53.10;;;20.93;;
19032;SDS011;9649;51.042;13.804;2024-01-30T22:47:15;55.23;;;22.03;;
19032;SDS011;9649;51.042;13.804;2024-01-30T22:53:30;55.43;;;22.17;;
19032;SDS011;9649;51.042;13.804;2024-01-30T22:59:15;55.30;;;21.47;;
19032;SDS011;9649;51.042;13.804;2024-01-30T23:04:41;56.50;;;21.83;;
19032;SDS011;9649;51.042;13.804;2024-01-30T23:10:19;59.13;;;23.17;;
19032;SDS011;9649;51.042;13.804;2024-01-30T23:16:06;55.43;;;22.03;;
19032;SDS011;9649;51.042;13.804;2024-01-30T23:22:02;58.30;;;23.07;;
19032;SDS011;9649;51.042;13.804;2024-01-30T23:33:27;54.93;;;22.80;;
19032;SDS011;9649;51.042;13.804;2024-01-30T23:44:59;54.73;;;21.57;;
19032;SDS011;9649;51.042;13.804;2024-01-30T23:50:32;59.43;;;23.13;;
19032;SDS011;9649;51.042;13.804;2024-01-30T23:55:35;57.93;;;21.83;;
